createdAt,value
2018-05-01T00:00:01.909Z,995.35
2018-05-01T00:01:01.926Z,995.33
2018-05-01T00:02:01.944Z,995.39
2018-05-01T00:03:01.964Z,995.42
2018-05-01T00:04:01.979Z,995.37
2018-05-01T00:05:01.998Z,995.37
2018-05-01T00:06:02.015Z,995.44
2018-05-01T00:07:02.034Z,995.21
2018-05-01T00:08:02.049Z,995.38
2018-05-01T00:09:02.067Z,995.31
2018-05-01T00:10:02.085Z,995.31
2018-05-01T00:11:02.103Z,995.33
2018-05-01T00:12:02.125Z,995.28
2018-05-01T00:13:02.137Z,995.30
2018-05-01T00:14:02.155Z,995.40
2018-05-01T00:15:02.178Z,995.33
2018-05-01T00:16:02.190Z,995.43
2018-05-01T00:17:02.211Z,995.33
2018-05-01T00:18:02.225Z,995.35
2018-05-01T00:19:02.243Z,995.50
2018-05-01T00:20:02.261Z,995.39
2018-05-01T00:21:02.279Z,995.40
2018-05-01T00:22:02.295Z,995.42
2018-05-01T00:23:02.316Z,995.45
2018-05-01T00:24:02.331Z,995.39
2018-05-01T00:25:02.349Z,995.39
2018-05-01T00:26:02.366Z,995.49
2018-05-01T00:27:02.383Z,995.48
2018-05-01T00:28:02.400Z,995.45
2018-05-01T00:29:02.419Z,995.48
2018-05-01T00:30:02.436Z,995.46
2018-05-01T00:31:02.458Z,995.41
2018-05-01T00:32:02.476Z,995.42
2018-05-01T00:33:02.488Z,995.50
2018-05-01T00:34:02.507Z,995.39
2018-05-01T00:35:02.524Z,995.41
2018-05-01T00:36:02.539Z,995.46
2018-05-01T00:37:02.557Z,995.42
2018-05-01T00:38:02.575Z,995.31
2018-05-01T00:39:02.593Z,995.42
2018-05-01T00:40:02.610Z,995.41
2018-05-01T00:41:02.645Z,995.49
2018-05-01T00:42:02.645Z,995.49
2018-05-01T00:43:02.663Z,995.42
2018-05-01T00:44:02.679Z,995.49
2018-05-01T00:45:02.699Z,995.51
2018-05-01T00:46:02.714Z,995.49
2018-05-01T00:47:02.732Z,995.57
2018-05-01T00:48:02.749Z,995.55
2018-05-01T00:49:02.766Z,995.57
2018-05-01T00:50:02.785Z,995.62
2018-05-01T00:51:02.805Z,995.65
2018-05-01T00:52:02.818Z,995.61
2018-05-01T00:53:02.836Z,995.64
2018-05-01T00:54:02.853Z,995.57
2018-05-01T00:55:02.871Z,995.59
2018-05-01T00:56:02.887Z,995.64
2018-05-01T00:57:02.906Z,995.64
2018-05-01T00:58:02.921Z,995.62
2018-05-01T00:59:02.940Z,995.62
2018-05-01T01:00:02.956Z,995.68
2018-05-01T01:01:02.974Z,995.64
2018-05-01T01:02:02.991Z,995.66
2018-05-01T01:03:03.008Z,995.51
2018-05-01T01:04:03.025Z,995.69
2018-05-01T01:05:03.045Z,995.72
2018-05-01T01:06:03.060Z,995.66
2018-05-01T01:07:03.078Z,995.72
2018-05-01T01:08:03.095Z,995.76
2018-05-01T01:09:03.111Z,995.71
2018-05-01T01:10:03.129Z,995.73
2018-05-01T01:11:03.146Z,995.69
2018-05-01T01:12:03.163Z,995.65
2018-05-01T01:13:03.185Z,995.65
2018-05-01T01:14:03.200Z,995.76
2018-05-01T01:15:03.220Z,995.62
2018-05-01T01:16:03.233Z,995.85
2018-05-01T01:17:03.250Z,995.66
2018-05-01T01:18:03.266Z,995.72
2018-05-01T01:19:03.285Z,995.77
2018-05-01T01:20:03.299Z,995.70
2018-05-01T01:21:03.317Z,995.72
2018-05-01T01:22:03.335Z,995.82
2018-05-01T01:23:03.352Z,995.77
2018-05-01T01:24:03.370Z,995.85
2018-05-01T01:25:03.387Z,995.83
2018-05-01T01:26:03.403Z,995.74
2018-05-01T01:27:03.421Z,995.76
2018-05-01T01:28:03.437Z,995.73
2018-05-01T01:29:03.454Z,995.78
2018-05-01T01:30:03.474Z,995.83
2018-05-01T01:31:03.491Z,995.83
2018-05-01T01:32:03.506Z,995.72
2018-05-01T01:33:03.523Z,995.86
2018-05-01T01:34:03.541Z,995.87
2018-05-01T01:35:03.558Z,995.85
2018-05-01T01:36:03.573Z,995.81
2018-05-01T01:37:03.592Z,995.90
2018-05-01T01:38:03.608Z,995.82
2018-05-01T01:39:03.625Z,995.87
2018-05-01T01:40:03.648Z,995.79
2018-05-01T01:41:03.660Z,995.99
2018-05-01T01:42:03.677Z,996.00
2018-05-01T01:43:03.694Z,995.95
2018-05-01T01:44:03.712Z,995.88
2018-05-01T01:45:03.729Z,995.94
2018-05-01T01:46:03.746Z,995.99
2018-05-01T01:47:03.763Z,995.99
2018-05-01T01:48:03.779Z,995.96
2018-05-01T01:49:03.796Z,995.89
2018-05-01T01:50:03.813Z,996.01
2018-05-01T01:51:03.830Z,996.03
2018-05-01T01:52:03.847Z,995.98
2018-05-01T01:53:03.864Z,996.02
2018-05-01T01:54:03.881Z,995.96
2018-05-01T01:55:03.899Z,996.05
2018-05-01T01:56:03.916Z,996.06
2018-05-01T01:57:03.932Z,996.01
2018-05-01T01:58:03.950Z,996.07
2018-05-01T01:59:03.967Z,996.09
2018-05-01T02:00:03.984Z,996.04
2018-05-01T02:01:04.000Z,996.11
2018-05-01T02:02:04.017Z,996.09
2018-05-01T02:03:04.035Z,996.12
2018-05-01T02:04:04.051Z,996.03
2018-05-01T02:05:04.068Z,996.12
2018-05-01T02:06:04.086Z,996.14
2018-05-01T02:07:04.103Z,996.11
2018-05-01T02:08:04.120Z,996.08
2018-05-01T02:09:04.136Z,996.18
2018-05-01T02:10:04.153Z,996.13
2018-05-01T02:11:04.171Z,996.14
2018-05-01T02:12:04.187Z,996.14
2018-05-01T02:13:04.208Z,996.14
2018-05-01T02:14:04.221Z,996.21
2018-05-01T02:15:04.239Z,996.20
2018-05-01T02:16:04.255Z,996.12
2018-05-01T02:17:04.275Z,996.18
2018-05-01T02:18:04.289Z,996.14
2018-05-01T02:19:04.313Z,996.08
2018-05-01T02:20:04.322Z,996.12
2018-05-01T02:21:04.354Z,996.23
2018-05-01T02:22:04.357Z,996.18
2018-05-01T02:23:04.374Z,996.21
2018-05-01T02:24:04.391Z,996.16
2018-05-01T02:25:04.410Z,996.24
2018-05-01T02:26:04.425Z,996.15
2018-05-01T02:27:04.442Z,996.21
2018-05-01T02:28:04.458Z,996.14
2018-05-01T02:29:04.476Z,996.19
2018-05-01T02:30:04.494Z,996.10
2018-05-01T02:31:04.606Z,996.24
2018-05-01T02:32:04.528Z,996.27
2018-05-01T02:33:04.544Z,996.19
2018-05-01T02:34:04.560Z,996.27
2018-05-01T02:35:04.578Z,996.25
2018-05-01T02:36:04.594Z,996.24
2018-05-01T02:37:04.611Z,996.27
2018-05-01T02:38:04.634Z,996.22
2018-05-01T02:39:04.648Z,996.29
2018-05-01T02:40:04.666Z,996.29
2018-05-01T02:41:04.684Z,996.27
2018-05-01T02:42:04.696Z,996.38
2018-05-01T02:43:04.714Z,996.27
2018-05-01T02:44:04.731Z,996.29
2018-05-01T02:45:04.748Z,996.17
2018-05-01T02:46:04.767Z,996.33
2018-05-01T02:47:04.782Z,996.34
2018-05-01T02:48:04.797Z,996.33
2018-05-01T02:49:04.814Z,996.32
2018-05-01T02:50:04.834Z,996.28
2018-05-01T02:51:04.850Z,996.45
2018-05-01T02:52:04.864Z,996.33
2018-05-01T02:53:04.882Z,996.40
2018-05-01T02:54:04.899Z,996.34
2018-05-01T02:55:04.920Z,996.49
2018-05-01T02:56:04.933Z,996.42
2018-05-01T02:57:04.949Z,996.39
2018-05-01T02:58:05.317Z,996.45
2018-05-01T02:59:04.983Z,996.41
2018-05-01T03:00:04.999Z,996.38
2018-05-01T03:01:05.017Z,996.43
2018-05-01T03:02:05.033Z,996.46
2018-05-01T03:03:05.051Z,996.46
2018-05-01T03:04:05.067Z,996.43
2018-05-01T03:05:05.084Z,996.42
2018-05-01T03:06:05.100Z,996.53
2018-05-01T03:07:05.118Z,996.50
2018-05-01T03:08:05.134Z,996.49
2018-05-01T03:09:05.152Z,996.54
2018-05-01T03:10:05.169Z,996.53
2018-05-01T03:11:05.195Z,996.48
2018-05-01T03:12:05.202Z,996.51
2018-05-01T03:13:05.217Z,996.50
2018-05-01T03:14:05.237Z,996.51
2018-05-01T03:15:05.253Z,996.57
2018-05-01T03:16:05.269Z,996.57
2018-05-01T03:17:05.286Z,996.56
2018-05-01T03:18:05.303Z,996.59
2018-05-01T03:19:05.320Z,996.56
2018-05-01T03:20:05.337Z,996.64
2018-05-01T03:21:05.354Z,996.69
2018-05-01T03:22:05.371Z,996.58
2018-05-01T03:23:05.386Z,996.71
2018-05-01T03:24:05.406Z,996.64
2018-05-01T03:25:05.420Z,996.67
2018-05-01T03:26:05.439Z,996.73
2018-05-01T03:27:05.455Z,996.63
2018-05-01T03:28:05.472Z,996.74
2018-05-01T03:29:05.487Z,996.68
2018-05-01T03:30:05.506Z,996.67
2018-05-01T03:31:05.526Z,996.69
2018-05-01T03:32:05.584Z,996.76
2018-05-01T03:33:05.555Z,996.72
2018-05-01T03:34:05.572Z,996.76
2018-05-01T03:35:05.589Z,996.70
2018-05-01T03:36:05.603Z,996.75
2018-05-01T03:37:05.622Z,996.76
2018-05-01T03:38:05.638Z,996.77
2018-05-01T03:39:05.747Z,996.75
2018-05-01T03:40:05.674Z,996.81
2018-05-01T03:41:05.690Z,996.75
2018-05-01T03:42:05.707Z,996.83
2018-05-01T03:43:05.723Z,996.82
2018-05-01T03:44:05.739Z,996.85
2018-05-01T03:45:05.756Z,996.90
2018-05-01T03:46:05.773Z,996.87
2018-05-01T03:47:05.792Z,996.91
2018-05-01T03:48:05.807Z,996.89
2018-05-01T03:49:05.821Z,996.97
2018-05-01T03:50:05.841Z,996.85
2018-05-01T03:51:05.857Z,996.92
2018-05-01T03:52:05.873Z,996.96
2018-05-01T03:53:05.890Z,996.97
2018-05-01T03:54:05.905Z,996.91
2018-05-01T03:55:05.925Z,996.93
2018-05-01T03:56:05.976Z,996.95
2018-05-01T03:57:05.958Z,997.06
2018-05-01T03:58:05.978Z,997.03
2018-05-01T03:59:05.994Z,997.07
2018-05-01T04:00:06.006Z,997.01
2018-05-01T04:01:06.024Z,997.03
2018-05-01T04:02:06.044Z,997.08
2018-05-01T04:03:06.058Z,997.15
2018-05-01T04:04:06.074Z,997.14
2018-05-01T04:05:06.091Z,997.12
2018-05-01T04:06:06.109Z,997.18
2018-05-01T04:07:06.126Z,997.09
2018-05-01T04:08:06.142Z,997.16
2018-05-01T04:09:06.157Z,997.17
2018-05-01T04:10:06.175Z,997.17
2018-05-01T04:11:06.194Z,997.22
2018-05-01T04:12:06.209Z,997.35
2018-05-01T04:13:06.225Z,997.28
2018-05-01T04:14:06.242Z,997.30
2018-05-01T04:15:06.259Z,997.34
2018-05-01T04:16:06.275Z,997.22
2018-05-01T04:17:06.293Z,997.29
2018-05-01T04:18:06.309Z,997.31
2018-05-01T04:19:06.326Z,997.34
2018-05-01T04:20:06.342Z,997.37
2018-05-01T04:21:06.362Z,997.42
2018-05-01T04:22:06.376Z,997.33
2018-05-01T04:23:06.393Z,997.44
2018-05-01T04:24:06.409Z,997.42
2018-05-01T04:25:06.428Z,997.50
2018-05-01T04:26:06.442Z,997.48
2018-05-01T04:27:06.460Z,997.48
2018-05-01T04:28:06.476Z,997.53
2018-05-01T04:29:06.493Z,997.43
2018-05-01T04:30:06.511Z,997.48
2018-05-01T04:31:06.526Z,997.63
2018-05-01T04:32:06.544Z,997.51
2018-05-01T04:33:06.560Z,997.52
2018-05-01T04:34:06.576Z,997.59
2018-05-01T04:35:06.594Z,997.69
2018-05-01T04:36:06.611Z,997.65
2018-05-01T04:37:06.631Z,997.58
2018-05-01T04:38:06.643Z,997.66
2018-05-01T04:39:06.660Z,997.75
2018-05-01T04:40:06.679Z,997.73
2018-05-01T04:41:06.694Z,997.60
2018-05-01T04:42:06.711Z,997.71
2018-05-01T04:43:06.728Z,997.78
2018-05-01T04:44:06.744Z,997.75
2018-05-01T04:45:06.761Z,997.68
2018-05-01T04:46:06.777Z,997.78
2018-05-01T04:47:06.794Z,997.69
2018-05-01T04:48:06.813Z,997.81
2018-05-01T04:49:06.830Z,997.82
2018-05-01T04:50:06.894Z,997.80
2018-05-01T04:51:06.862Z,997.89
2018-05-01T04:52:06.877Z,997.86
2018-05-01T04:53:06.895Z,997.96
2018-05-01T04:54:06.916Z,997.87
2018-05-01T04:55:06.928Z,997.92
2018-05-01T04:56:06.944Z,997.95
2018-05-01T04:57:06.962Z,998.01
2018-05-01T04:58:06.978Z,998.10
2018-05-01T04:59:06.995Z,997.99
2018-05-01T05:00:07.010Z,998.07
2018-05-01T05:01:07.028Z,998.19
2018-05-01T05:02:07.045Z,998.26
2018-05-01T05:03:07.062Z,998.19
2018-05-01T05:04:07.078Z,998.16
2018-05-01T05:05:07.095Z,998.20
2018-05-01T05:06:07.112Z,998.15
2018-05-01T05:07:07.129Z,998.33
2018-05-01T05:08:07.146Z,998.12
2018-05-01T05:09:07.163Z,998.25
2018-05-01T05:10:07.179Z,998.24
2018-05-01T05:11:07.197Z,998.30
2018-05-01T05:12:07.212Z,998.38
2018-05-01T05:13:07.231Z,998.36
2018-05-01T05:14:07.248Z,998.46
2018-05-01T05:15:07.264Z,998.41
2018-05-01T05:16:07.281Z,998.40
2018-05-01T05:17:07.297Z,998.52
2018-05-01T05:18:07.314Z,998.35
2018-05-01T05:19:07.335Z,998.44
2018-05-01T05:20:07.349Z,998.48
2018-05-01T05:21:07.365Z,998.54
2018-05-01T05:22:07.379Z,998.53
2018-05-01T05:23:07.398Z,998.59
2018-05-01T05:24:07.413Z,998.57
2018-05-01T05:25:07.431Z,998.56
2018-05-01T05:26:07.448Z,998.58
2018-05-01T05:27:07.465Z,998.63
2018-05-01T05:28:07.482Z,998.73
2018-05-01T05:29:07.499Z,998.68
2018-05-01T05:30:07.515Z,998.71
2018-05-01T05:31:07.533Z,998.67
2018-05-01T05:32:07.549Z,998.65
2018-05-01T05:33:07.570Z,998.78
2018-05-01T05:34:07.583Z,998.76
2018-05-01T05:35:07.599Z,998.77
2018-05-01T05:36:07.615Z,998.81
2018-05-01T05:37:07.633Z,998.79
2018-05-01T05:38:07.651Z,998.77
2018-05-01T05:39:07.667Z,998.91
2018-05-01T05:40:07.684Z,998.79
2018-05-01T05:41:07.699Z,998.82
2018-05-01T05:42:07.782Z,998.95
2018-05-01T05:43:07.735Z,998.91
2018-05-01T05:44:07.751Z,998.96
2018-05-01T05:45:07.771Z,998.89
2018-05-01T05:46:07.786Z,998.96
2018-05-01T05:47:07.803Z,998.97
2018-05-01T05:48:07.819Z,999.03
2018-05-01T05:49:07.836Z,999.05
2018-05-01T05:50:07.853Z,999.01
2018-05-01T05:51:07.875Z,999.10
2018-05-01T05:52:07.888Z,999.05
2018-05-01T05:53:07.909Z,999.19
2018-05-01T05:54:08.222Z,999.17
2018-05-01T05:55:07.938Z,999.20
2018-05-01T05:56:07.962Z,999.21
2018-05-01T05:57:07.972Z,999.34
2018-05-01T05:58:07.989Z,999.27
2018-05-01T05:59:08.007Z,999.33
2018-05-01T06:00:08.025Z,999.36
2018-05-01T06:01:08.097Z,999.33
2018-05-01T06:02:08.057Z,999.25
2018-05-01T06:03:08.075Z,999.38
2018-05-01T06:04:08.090Z,999.39
2018-05-01T06:05:08.108Z,999.40
2018-05-01T06:06:08.125Z,999.43
2018-05-01T06:07:08.143Z,999.40
2018-05-01T06:08:08.160Z,999.46
2018-05-01T06:09:08.176Z,999.52
2018-05-01T06:10:08.193Z,999.46
2018-05-01T06:11:08.210Z,999.54
2018-05-01T06:12:08.226Z,999.50
2018-05-01T06:13:08.244Z,999.50
2018-05-01T06:14:08.262Z,999.63
2018-05-01T06:15:08.279Z,999.59
2018-05-01T06:16:08.296Z,999.69
2018-05-01T06:17:08.312Z,999.61
2018-05-01T06:18:08.328Z,999.67
2018-05-01T06:19:08.347Z,999.71
2018-05-01T06:20:08.362Z,999.72
2018-05-01T06:21:08.380Z,999.78
2018-05-01T06:22:08.482Z,999.71
2018-05-01T06:23:08.414Z,999.78
2018-05-01T06:24:08.431Z,999.71
2018-05-01T06:25:08.449Z,999.81
2018-05-01T06:26:08.466Z,999.76
2018-05-01T06:27:08.482Z,999.70
2018-05-01T06:28:08.497Z,999.76
2018-05-01T06:29:08.524Z,999.81
2018-05-01T06:30:08.783Z,999.83
2018-05-01T06:31:08.640Z,999.81
2018-05-01T06:32:08.566Z,999.82
2018-05-01T06:33:08.583Z,999.88
2018-05-01T06:34:08.610Z,999.84
2018-05-01T06:35:08.618Z,999.97
2018-05-01T06:36:08.634Z,999.89
2018-05-01T06:37:08.654Z,999.88
2018-05-01T06:38:08.669Z,999.95
2018-05-01T06:39:08.687Z,999.83
2018-05-01T06:40:08.704Z,999.97
2018-05-01T06:41:08.720Z,999.99
2018-05-01T06:42:08.741Z,999.90
2018-05-01T06:43:08.754Z,1000.04
2018-05-01T06:44:08.775Z,1000.14
2018-05-01T06:45:08.788Z,999.92
2018-05-01T06:46:08.804Z,1000.09
2018-05-01T06:47:08.822Z,1000.12
2018-05-01T06:48:08.839Z,1000.18
2018-05-01T06:49:08.856Z,1000.24
2018-05-01T06:50:08.873Z,1000.18
2018-05-01T06:51:08.893Z,1000.17
2018-05-01T06:52:08.906Z,1000.17
2018-05-01T06:53:08.923Z,1000.32
2018-05-01T06:54:08.940Z,1000.38
2018-05-01T06:55:08.958Z,1000.29
2018-05-01T06:56:08.974Z,1000.30
2018-05-01T06:57:08.995Z,1000.42
2018-05-01T06:58:09.009Z,1000.27
2018-05-01T06:59:09.027Z,1000.44
2018-05-01T07:00:09.043Z,1000.42
2018-05-01T07:01:09.063Z,1000.46
2018-05-01T07:02:09.077Z,1000.45
2018-05-01T07:03:09.095Z,1000.36
2018-05-01T07:04:09.110Z,1000.50
2018-05-01T07:05:09.129Z,1000.49
2018-05-01T07:06:09.145Z,1000.46
2018-05-01T07:07:09.168Z,1000.58
2018-05-01T07:08:09.179Z,1000.69
2018-05-01T07:09:09.196Z,1000.61
2018-05-01T07:10:09.215Z,1000.57
2018-05-01T07:11:09.231Z,1000.64
2018-05-01T07:12:09.247Z,1000.71
2018-05-01T07:13:09.265Z,1000.72
2018-05-01T07:14:09.284Z,1000.70
2018-05-01T07:15:09.301Z,1000.78
2018-05-01T07:16:09.316Z,1000.75
2018-05-01T07:17:09.334Z,1000.74
2018-05-01T07:18:09.354Z,1000.81
2018-05-01T07:19:09.369Z,1000.83
2018-05-01T07:20:09.385Z,1000.87
2018-05-01T07:21:09.485Z,1000.90
2018-05-01T07:22:09.420Z,1000.88
2018-05-01T07:23:09.436Z,1000.84
2018-05-01T07:24:09.454Z,1000.85
2018-05-01T07:25:09.473Z,1001.02
2018-05-01T07:26:09.490Z,1000.97
2018-05-01T07:27:09.505Z,1000.99
2018-05-01T07:28:09.522Z,1000.98
2018-05-01T07:29:09.540Z,1000.99
2018-05-01T07:30:09.557Z,1001.04
2018-05-01T07:31:09.577Z,1001.05
2018-05-01T07:32:09.592Z,1001.01
2018-05-01T07:33:09.609Z,1001.09
2018-05-01T07:34:09.626Z,1001.09
2018-05-01T07:35:09.644Z,1001.06
2018-05-01T07:36:09.661Z,1001.06
2018-05-01T07:37:09.678Z,1001.14
2018-05-01T07:38:09.699Z,1001.11
2018-05-01T07:39:09.714Z,1001.21
2018-05-01T07:40:09.731Z,1001.21
2018-05-01T07:41:09.749Z,1001.21
2018-05-01T07:42:09.766Z,1001.21
2018-05-01T07:43:09.783Z,1001.02
2018-05-01T07:44:09.800Z,1001.23
2018-05-01T07:45:09.817Z,1001.24
2018-05-01T07:46:09.835Z,1001.32
2018-05-01T07:47:09.852Z,1001.31
2018-05-01T07:48:09.870Z,1001.27
2018-05-01T07:49:09.954Z,1001.29
2018-05-01T07:50:09.904Z,1001.34
2018-05-01T07:51:09.922Z,1001.30
2018-05-01T07:52:09.938Z,1001.30
2018-05-01T07:53:09.955Z,1001.26
2018-05-01T07:54:09.973Z,1001.35
2018-05-01T07:55:09.991Z,1001.32
2018-05-01T07:56:10.007Z,1001.41
2018-05-01T07:57:10.027Z,1001.36
2018-05-01T07:58:10.044Z,1001.39
2018-05-01T07:59:10.061Z,1001.46
2018-05-01T08:00:10.076Z,1001.48
2018-05-01T08:01:10.095Z,1001.41
2018-05-01T08:02:10.113Z,1001.43
2018-05-01T08:03:10.131Z,1001.58
2018-05-01T08:04:10.147Z,1001.55
2018-05-01T08:05:10.165Z,1001.55
2018-05-01T08:06:10.189Z,1001.55
2018-05-01T08:07:10.200Z,1001.63
2018-05-01T08:08:10.217Z,1001.51
2018-05-01T08:09:10.233Z,1001.61
2018-05-01T08:10:10.253Z,1001.59
2018-05-01T08:11:10.270Z,1001.66
2018-05-01T08:12:10.301Z,1001.75
2018-05-01T08:13:10.304Z,1001.78
2018-05-01T08:14:10.323Z,1001.70
2018-05-01T08:15:10.340Z,1001.68
2018-05-01T08:16:10.356Z,1001.73
2018-05-01T08:17:10.374Z,1001.75
2018-05-01T08:18:10.391Z,1001.78
2018-05-01T08:19:10.409Z,1001.84
2018-05-01T08:20:10.428Z,1001.81
2018-05-01T08:21:10.458Z,1001.85
2018-05-01T08:22:10.463Z,1001.88
2018-05-01T08:23:10.479Z,1001.85
2018-05-01T08:24:10.499Z,1001.91
2018-05-01T08:25:10.594Z,1001.96
2018-05-01T08:26:10.532Z,1001.94
2018-05-01T08:27:10.617Z,1001.96
2018-05-01T08:28:10.566Z,1002.05
2018-05-01T08:29:10.584Z,1002.07
2018-05-01T08:30:10.606Z,1001.96
2018-05-01T08:31:10.620Z,1001.98
2018-05-01T08:32:10.636Z,1002.02
2018-05-01T08:33:10.654Z,1001.93
2018-05-01T08:34:10.673Z,1002.03
2018-05-01T08:35:10.690Z,1002.04
2018-05-01T08:36:10.707Z,1002.01
2018-05-01T08:37:10.729Z,1002.17
2018-05-01T08:38:10.743Z,1002.10
2018-05-01T08:39:10.759Z,1002.12
2018-05-01T08:40:10.862Z,1002.13
2018-05-01T08:41:10.794Z,1002.16
2018-05-01T08:42:10.812Z,1002.27
2018-05-01T08:43:10.830Z,1002.20
2018-05-01T08:44:11.198Z,1002.24
2018-05-01T08:45:10.912Z,1002.30
2018-05-01T08:46:10.884Z,1002.30
2018-05-01T08:47:11.203Z,1002.31
2018-05-01T08:48:11.320Z,1002.31
2018-05-01T08:49:10.936Z,1002.40
2018-05-01T08:50:11.254Z,1002.41
2018-05-01T08:51:10.972Z,1002.36
2018-05-01T08:52:10.989Z,1002.37
2018-05-01T08:53:11.009Z,1002.46
2018-05-01T08:54:11.026Z,1002.45
2018-05-01T08:55:11.044Z,1002.46
2018-05-01T08:56:11.062Z,1002.55
2018-05-01T08:57:11.080Z,1002.66
2018-05-01T08:58:11.102Z,1002.52
2018-05-01T08:59:11.117Z,1002.60
2018-05-01T09:00:11.134Z,1002.51
2018-05-01T09:01:11.153Z,1002.66
2018-05-01T09:02:11.171Z,1002.78
2018-05-01T09:03:11.190Z,1002.68
2018-05-01T09:04:11.220Z,1002.78
2018-05-01T09:05:11.225Z,1002.73
2018-05-01T09:06:11.245Z,1002.68
2018-05-01T09:07:11.262Z,1002.70
2018-05-01T09:08:11.282Z,1002.64
2018-05-01T09:09:11.300Z,1002.84
2018-05-01T09:10:11.324Z,1002.88
2018-05-01T09:11:11.637Z,1002.81
2018-05-01T09:12:11.355Z,1002.83
2018-05-01T09:13:11.379Z,1002.86
2018-05-01T09:14:11.392Z,1002.86
2018-05-01T09:15:11.411Z,1002.83
2018-05-01T09:16:11.430Z,1002.93
2018-05-01T09:17:11.447Z,1002.93
2018-05-01T09:18:11.578Z,1003.00
2018-05-01T09:19:11.485Z,1002.93
2018-05-01T09:20:11.502Z,1002.99
2018-05-01T09:21:11.522Z,1003.04
2018-05-01T09:22:11.541Z,1003.02
2018-05-01T09:23:11.558Z,1003.03
2018-05-01T09:24:11.576Z,1003.02
2018-05-01T09:25:11.594Z,1003.05
2018-05-01T09:26:11.612Z,1003.10
2018-05-01T09:27:11.635Z,1003.13
2018-05-01T09:28:11.650Z,1003.13
2018-05-01T09:29:11.667Z,1003.15
2018-05-01T09:30:11.687Z,1003.13
2018-05-01T09:31:11.706Z,1003.09
2018-05-01T09:32:11.722Z,1003.15
2018-05-01T09:33:11.742Z,1003.10
2018-05-01T09:34:11.761Z,1003.14
2018-05-01T09:35:11.788Z,1003.12
2018-05-01T09:36:11.798Z,1003.19
2018-05-01T09:37:11.817Z,1003.15
2018-05-01T09:38:11.836Z,1003.25
2018-05-01T09:39:11.855Z,1003.24
2018-05-01T09:40:11.872Z,1003.33
2018-05-01T09:41:11.892Z,1003.23
2018-05-01T09:42:11.910Z,1003.24
2018-05-01T09:43:11.933Z,1003.31
2018-05-01T09:44:11.948Z,1003.30
2018-05-01T09:45:11.967Z,1003.38
2018-05-01T09:46:11.986Z,1003.36
2018-05-01T09:47:12.005Z,1003.37
2018-05-01T09:48:13.376Z,1003.42
2018-05-01T09:49:12.043Z,1003.50
2018-05-01T09:50:12.063Z,1003.36
2018-05-01T09:51:12.081Z,1003.43
2018-05-01T09:52:12.100Z,1003.36
2018-05-01T09:53:12.181Z,1003.53
2018-05-01T09:54:12.138Z,1003.50
2018-05-01T09:55:12.157Z,1003.33
2018-05-01T09:56:12.176Z,1003.39
2018-05-01T09:57:12.197Z,1003.36
2018-05-01T09:58:12.215Z,1003.43
2018-05-01T09:59:12.234Z,1003.41
2018-05-01T10:00:12.253Z,1003.40
2018-05-01T10:01:12.272Z,1003.48
2018-05-01T10:02:12.290Z,1003.43
2018-05-01T10:03:12.311Z,1003.45
2018-05-01T10:04:12.329Z,1003.47
2018-05-01T10:05:12.348Z,1003.48
2018-05-01T10:06:12.369Z,1003.56
2018-05-01T10:07:12.387Z,1003.53
2018-05-01T10:08:12.407Z,1003.57
2018-05-01T10:09:12.426Z,1003.54
2018-05-01T10:10:12.445Z,1003.55
2018-05-01T10:11:12.465Z,1003.59
2018-05-01T10:12:12.500Z,1003.55
2018-05-01T10:13:12.509Z,1003.65
2018-05-01T10:14:12.523Z,1003.54
2018-05-01T10:15:12.545Z,1003.53
2018-05-01T10:16:12.561Z,1003.62
2018-05-01T10:17:12.581Z,1003.52
2018-05-01T10:18:12.601Z,1003.61
2018-05-01T10:19:12.622Z,1003.70
2018-05-01T10:20:12.640Z,1003.69
2018-05-01T10:21:12.659Z,1003.73
2018-05-01T10:22:12.678Z,1003.71
2018-05-01T10:23:12.698Z,1003.76
2018-05-01T10:24:12.717Z,1003.80
2018-05-01T10:25:12.737Z,1003.83
2018-05-01T10:26:12.756Z,1003.73
2018-05-01T10:27:12.776Z,1003.70
2018-05-01T10:28:12.794Z,1003.82
2018-05-01T10:29:12.816Z,1003.71
2018-05-01T10:30:12.834Z,1003.73
2018-05-01T10:31:12.858Z,1003.86
2018-05-01T10:32:12.874Z,1003.82
2018-05-01T10:33:12.895Z,1003.84
2018-05-01T10:34:12.917Z,1003.82
2018-05-01T10:35:12.933Z,1003.89
2018-05-01T10:36:13.204Z,1003.75
2018-05-01T10:37:12.973Z,1003.84
2018-05-01T10:38:12.994Z,1003.89
2018-05-01T10:39:13.014Z,1003.81
2018-05-01T10:40:13.036Z,1003.91
2018-05-01T10:41:13.053Z,1003.82
2018-05-01T10:42:13.072Z,1003.83
2018-05-01T10:43:13.094Z,1003.91
2018-05-01T10:44:13.114Z,1003.79
2018-05-01T10:45:13.134Z,1003.96
2018-05-01T10:46:13.154Z,1003.86
2018-05-01T10:47:13.175Z,1003.84
2018-05-01T10:48:13.194Z,1003.87
2018-05-01T10:49:13.215Z,1003.89
2018-05-01T10:50:13.234Z,1003.93
2018-05-01T10:51:13.256Z,1004.05
2018-05-01T10:52:13.275Z,1003.85
2018-05-01T10:53:13.296Z,1003.87
2018-05-01T10:54:13.315Z,1003.97
2018-05-01T10:55:13.336Z,1003.91
2018-05-01T10:56:13.357Z,1003.97
2018-05-01T10:57:13.377Z,1003.95
2018-05-01T10:58:13.749Z,1004.01
2018-05-01T10:59:13.419Z,1004.06
2018-05-01T11:00:13.438Z,1003.93
2018-05-01T11:01:13.459Z,1004.00
2018-05-01T11:02:13.481Z,1004.04
2018-05-01T11:03:13.500Z,1003.98
2018-05-01T11:04:13.521Z,1004.08
2018-05-01T11:05:13.541Z,1004.07
2018-05-01T11:06:13.562Z,1004.06
2018-05-01T11:07:13.582Z,1004.09
2018-05-01T11:08:13.602Z,1004.06
2018-05-01T11:09:13.623Z,1004.08
2018-05-01T11:10:13.644Z,1004.12
2018-05-01T11:11:13.669Z,1004.18
2018-05-01T11:12:13.684Z,1004.17
2018-05-01T11:13:13.705Z,1004.18
2018-05-01T11:14:13.725Z,1004.17
2018-05-01T11:15:13.747Z,1004.28
2018-05-01T11:16:13.766Z,1004.25
2018-05-01T11:17:13.789Z,1004.28
2018-05-01T11:18:13.806Z,1004.28
2018-05-01T11:19:13.830Z,1004.29
2018-05-01T11:20:13.847Z,1004.31
2018-05-01T11:21:13.868Z,1004.43
2018-05-01T11:22:13.890Z,1004.33
2018-05-01T11:23:13.909Z,1004.30
2018-05-01T11:24:13.928Z,1004.28
2018-05-01T11:25:13.950Z,1004.31
2018-05-01T11:26:14.183Z,1004.32
2018-05-01T11:27:13.992Z,1004.32
2018-05-01T11:28:14.012Z,1004.31
2018-05-01T11:29:14.031Z,1004.33
2018-05-01T11:30:14.052Z,1004.34
2018-05-01T11:31:14.072Z,1004.37
2018-05-01T11:32:14.092Z,1004.29
2018-05-01T11:33:14.113Z,1004.36
2018-05-01T11:34:14.138Z,1004.37
2018-05-01T11:35:14.155Z,1004.43
2018-05-01T11:36:14.174Z,1004.49
2018-05-01T11:37:14.195Z,1004.42
2018-05-01T11:38:14.216Z,1004.42
2018-05-01T11:39:14.236Z,1004.45
2018-05-01T11:40:14.257Z,1004.50
2018-05-01T11:41:14.278Z,1004.41
2018-05-01T11:42:14.298Z,1004.46
2018-05-01T11:43:14.319Z,1004.44
2018-05-01T11:44:14.340Z,1004.40
2018-05-01T11:45:14.360Z,1004.56
2018-05-01T11:46:14.382Z,1004.54
2018-05-01T11:47:14.402Z,1004.59
2018-05-01T11:48:14.423Z,1004.56
2018-05-01T11:49:14.443Z,1004.63
2018-05-01T11:50:14.464Z,1004.65
2018-05-01T11:51:14.487Z,1004.63
2018-05-01T11:52:14.504Z,1004.53
2018-05-01T11:53:14.526Z,1004.71
2018-05-01T11:54:14.546Z,1004.63
2018-05-01T11:55:14.566Z,1004.67
2018-05-01T11:56:14.590Z,1004.62
2018-05-01T11:57:14.608Z,1004.69
2018-05-01T11:58:14.629Z,1004.69
2018-05-01T11:59:14.649Z,1004.67
2018-05-01T12:00:14.669Z,1004.68
2018-05-01T12:01:14.691Z,1004.76
2018-05-01T12:02:14.711Z,1004.64
2018-05-01T12:03:14.730Z,1004.74
2018-05-01T12:04:14.751Z,1004.80
2018-05-01T12:05:14.778Z,1004.81
2018-05-01T12:06:14.793Z,1004.80
2018-05-01T12:07:14.815Z,1004.83
2018-05-01T12:08:14.835Z,1004.84
2018-05-01T12:09:14.854Z,1004.84
2018-05-01T12:10:14.876Z,1004.95
2018-05-01T12:11:14.897Z,1004.98
2018-05-01T12:12:14.916Z,1004.93
2018-05-01T12:13:14.938Z,1004.90
2018-05-01T12:14:14.958Z,1004.92
2018-05-01T12:15:14.980Z,1004.95
2018-05-01T12:16:15.076Z,1005.00
2018-05-01T12:17:15.021Z,1005.00
2018-05-01T12:18:15.042Z,1004.96